Time,TemperatureF,DewpointF,PressureIn,WindDirection,WindDirectionDegrees,WindSpeedMPH,WindSpeedGustMPH,Humidity,HourlyPrecipIn,Conditions,Clouds,dailyrainin,SoftwareType,DateUTC
2013-06-14 00:06:00,40.7,36.0,30.21,East,81,0.0,1.0,83,0.00,,,0.05,weatherlink.com 1.10,2013-06-14 07:06:00,
2013-06-14 00:21:00,38.9,35.0,30.21,ESE,111,0.0,2.0,86,0.00,,,0.05,weatherlink.com 1.10,2013-06-14 07:21:00,
2013-06-14 00:36:00,39.6,36.0,30.21,SE,129,0.0,2.0,87,0.00,,,0.05,weatherlink.com 1.10,2013-06-14 07:36:00,
2013-06-14 00:51:00,40.3,37.0,30.21,ESE,121,0.0,2.0,86,0.00,,,0.05,weatherlink.com 1.10,2013-06-14 07:51:00,
2013-06-14 01:06:00,40.3,37.0,30.21,ESE,121,1.0,1.0,86,0.00,,,0.05,weatherlink.com 1.10,2013-06-14 08:06:00,
2013-06-14 01:21:00,40.7,37.0,30.21,ESE,118,2.0,2.0,85,0.00,,,0.05,weatherlink.com 1.10,2013-06-14 08:21:00,
2013-06-14 01:36:00,41.4,37.0,30.21,SSW,204,0.0,2.0,83,0.00,,,0.05,weatherlink.com 1.10,2013-06-14 08:36:00,
2013-06-14 01:51:00,41.6,37.0,30.21,ESE,116,0.0,3.0,82,0.00,,,0.05,weatherlink.com 1.10,2013-06-14 08:51:00,
2013-06-14 02:06:00,40.9,36.0,30.20,ESE,121,0.0,1.0,83,0.00,,,0.05,weatherlink.com 1.10,2013-06-14 09:06:00,
2013-06-14 02:21:00,40.3,36.0,30.20,SSE,155,0.0,3.0,84,0.00,,,0.00,weatherlink.com 1.10,2013-06-14 09:21:00,
2013-06-14 02:36:00,40.3,36.0,30.19,SSE,151,1.0,3.0,84,0.00,,,0.00,weatherlink.com 1.10,2013-06-14 09:36:00,
2013-06-14 02:51:00,40.0,36.0,30.19,ESE,120,1.0,2.0,85,0.00,,,0.00,weatherlink.com 1.10,2013-06-14 09:51:00,
2013-06-14 03:06:00,38.9,35.0,30.19,ESE,120,0.0,1.0,87,0.00,,,0.00,weatherlink.com 1.10,2013-06-14 10:06:00,
2013-06-14 03:21:00,38.1,35.0,30.19,SSE,153,3.0,3.0,87,0.00,,,0.00,weatherlink.com 1.10,2013-06-14 10:21:00,
2013-06-14 03:36:00,37.8,35.0,30.19,ESE,109,0.0,2.0,89,0.00,,,0.00,weatherlink.com 1.10,2013-06-14 10:36:00,
2013-06-14 03:51:00,38.1,35.0,30.18,ESE,105,0.0,3.0,88,0.00,,,0.00,weatherlink.com 1.10,2013-06-14 10:51:00,
2013-06-14 04:06:00,37.8,34.0,30.19,ESE,105,0.0,0.0,87,0.00,,,0.00,weatherlink.com 1.10,2013-06-14 11:06:00,
2013-06-14 04:21:00,36.7,34.0,30.19,ESE,107,0.0,0.0,89,0.00,,,0.00,weatherlink.com 1.10,2013-06-14 11:21:00,
2013-06-14 04:36:00,37.5,35.0,30.19,ESE,107,2.0,5.0,90,0.00,,,0.00,weatherlink.com 1.10,2013-06-14 11:36:00,
2013-06-14 04:51:00,37.6,34.0,30.19,SE,135,3.0,3.0,88,0.00,,,0.00,weatherlink.com 1.10,2013-06-14 11:51:00,
2013-06-14 05:06:00,37.8,35.0,30.19,ESE,103,1.0,4.0,88,0.00,,,0.00,weatherlink.com 1.10,2013-06-14 12:06:00,
2013-06-14 05:21:00,37.9,35.0,30.19,SE,127,0.0,3.0,88,0.00,,,0.00,weatherlink.com 1.10,2013-06-14 12:21:00,
2013-06-14 05:36:00,38.4,35.0,30.19,SE,133,1.0,4.0,88,0.00,,,0.00,weatherlink.com 1.10,2013-06-14 12:36:00,
2013-06-14 05:51:00,39.3,36.0,30.19,SSE,155,0.0,3.0,87,0.00,,,0.00,weatherlink.com 1.10,2013-06-14 12:51:00,
2013-06-14 06:06:00,39.5,36.0,30.20,ESE,105,0.0,1.0,87,0.00,,,0.00,weatherlink.com 1.10,2013-06-14 13:06:00,
2013-06-14 06:21:00,39.8,36.0,30.20,SE,139,0.0,3.0,86,0.00,,,0.00,weatherlink.com 1.10,2013-06-14 13:21:00,
2013-06-14 06:36:00,40.2,36.0,30.19,ESE,110,0.0,2.0,85,0.00,,,0.00,weatherlink.com 1.10,2013-06-14 13:36:00,
2013-06-14 06:51:00,40.2,36.0,30.19,ESE,120,0.0,1.0,85,0.00,,,0.00,weatherlink.com 1.10,2013-06-14 13:51:00,
2013-06-14 07:06:00,41.9,36.0,30.19,South,169,0.0,1.0,80,0.00,,,0.00,weatherlink.com 1.10,2013-06-14 14:06:00,
2013-06-14 07:22:00,43.5,37.0,30.19,SE,146,2.0,4.0,78,0.00,,,0.00,weatherlink.com 1.10,2013-06-14 14:22:00,
2013-06-14 07:37:00,44.3,37.0,30.19,SSW,208,0.0,7.0,76,0.00,,,0.00,weatherlink.com 1.10,2013-06-14 14:37:00,
2013-06-14 07:52:00,45.7,38.0,30.19,SSW,202,1.0,3.0,74,0.00,,,0.00,weatherlink.com 1.10,2013-06-14 14:52:00,
2013-06-14 08:07:00,45.8,38.0,30.18,SSE,165,5.0,8.0,73,0.00,,,0.00,weatherlink.com 1.10,2013-06-14 15:07:00,
2013-06-14 08:22:00,46.5,37.0,30.18,South,172,0.0,6.0,70,0.00,,,0.00,weatherlink.com 1.10,2013-06-14 15:22:00,
2013-06-14 08:37:00,47.2,37.0,30.18,SW,231,3.0,8.0,69,0.00,,,0.00,weatherlink.com 1.10,2013-06-14 15:37:00,
2013-06-14 08:52:00,48.2,38.0,30.18,SSW,201,3.0,6.0,68,0.00,,,0.00,weatherlink.com 1.10,2013-06-14 15:52:00,
2013-06-14 09:07:00,48.3,37.0,30.18,SSW,205,4.0,11.0,66,0.00,,,0.00,weatherlink.com 1.10,2013-06-14 16:07:00,
2013-06-14 09:22:00,49.1,38.0,30.18,SSE,157,2.0,8.0,67,0.00,,,0.00,weatherlink.com 1.10,2013-06-14 16:22:00,
2013-06-14 09:31:00,49.8,38.0,30.17,South,179,8.0,10.0,65,0.00,,,0.00,weatherlink.com 1.10,2013-06-14 16:31:00,
2013-06-14 09:44:00,49.3,37.0,30.17,SSE,162,11.0,12.0,62,0.00,,,0.00,weatherlink.com 1.10,2013-06-14 16:44:00,
2013-06-14 09:59:00,50.1,37.0,30.16,South,187,6.0,11.0,61,0.00,,,0.00,weatherlink.com 1.10,2013-06-14 16:59:00,
2013-06-14 10:14:00,50.0,36.0,30.16,South,190,8.0,12.0,60,0.00,,,0.00,weatherlink.com 1.10,2013-06-14 17:14:00,
2013-06-14 10:29:00,51.3,36.0,30.16,SSW,195,8.0,11.0,57,0.00,,,0.00,weatherlink.com 1.10,2013-06-14 17:29:00,
2013-06-14 10:44:00,52.1,36.0,30.15,WSW,249,2.0,9.0,55,0.00,,,0.00,weatherlink.com 1.10,2013-06-14 17:44:00,
2013-06-14 10:59:00,53.4,37.0,30.15,SSW,205,3.0,11.0,54,0.00,,,0.00,weatherlink.com 1.10,2013-06-14 17:59:00,
2013-06-14 11:14:00,53.8,35.0,30.14,South,186,4.0,9.0,50,0.00,,,0.00,weatherlink.com 1.10,2013-06-14 18:14:00,
2013-06-14 11:29:00,55.1,35.0,30.14,South,181,4.0,11.0,47,0.00,,,0.00,weatherlink.com 1.10,2013-06-14 18:29:00,
2013-06-14 11:44:00,55.5,35.0,30.14,SE,141,4.0,12.0,47,0.00,,,0.00,weatherlink.com 1.10,2013-06-14 18:44:00,
2013-06-14 11:59:00,57.1,35.0,30.13,SE,133,2.0,7.0,44,0.00,,,0.00,weatherlink.com 1.10,2013-06-14 18:59:00,
2013-06-14 12:14:00,57.4,34.0,30.13,South,179,3.0,12.0,41,0.00,,,0.00,weatherlink.com 1.10,2013-06-14 19:14:00,
2013-06-14 12:29:00,58.7,34.0,30.13,South,181,2.0,10.0,39,0.00,,,0.00,weatherlink.com 1.10,2013-06-14 19:29:00,
2013-06-14 12:44:00,59.0,34.0,30.12,South,187,1.0,8.0,39,0.00,,,0.00,weatherlink.com 1.10,2013-06-14 19:44:00,
2013-06-14 12:59:00,60.5,33.0,30.11,SE,129,0.0,7.0,36,0.00,,,0.00,weatherlink.com 1.10,2013-06-14 19:59:00,
2013-06-14 13:14:00,59.9,32.0,30.11,SW,218,8.0,10.0,35,0.00,,,0.00,weatherlink.com 1.10,2013-06-14 20:14:00,
2013-06-14 13:29:00,60.8,31.0,30.10,SSW,195,2.0,10.0,33,0.00,,,0.00,weatherlink.com 1.10,2013-06-14 20:29:00,
2013-06-14 13:45:00,62.4,31.0,30.10,NE,53,3.0,6.0,31,0.00,,,0.00,weatherlink.com 1.10,2013-06-14 20:45:00,
2013-06-14 14:00:00,63.0,32.0,30.09,SW,233,1.0,8.0,31,0.00,,,0.00,weatherlink.com 1.10,2013-06-14 21:00:00,
2013-06-14 14:15:00,63.5,31.0,30.09,SSW,193,2.0,6.0,30,0.00,,,0.00,weatherlink.com 1.10,2013-06-14 21:15:00,
2013-06-14 14:30:00,63.1,32.0,30.08,WNW,296,5.0,8.0,31,0.00,,,0.00,weatherlink.com 1.10,2013-06-14 21:30:00,
2013-06-14 14:45:00,64.3,31.0,30.07,SE,135,2.0,6.0,29,0.00,,,0.00,weatherlink.com 1.10,2013-06-14 21:45:00,
2013-06-14 15:00:00,65.8,30.0,30.06,SE,132,4.0,8.0,26,0.00,,,0.00,weatherlink.com 1.10,2013-06-14 22:00:00,
2013-06-14 15:15:00,67.6,29.0,30.06,ESE,121,2.0,6.0,24,0.00,,,0.00,weatherlink.com 1.10,2013-06-14 22:15:00,
2013-06-14 15:30:00,66.0,29.0,30.05,West,274,5.0,7.0,25,0.00,,,0.00,weatherlink.com 1.10,2013-06-14 22:30:00,
2013-06-14 15:45:00,65.6,28.0,30.05,NNW,328,2.0,7.0,24,0.00,,,0.00,weatherlink.com 1.10,2013-06-14 22:45:00,
2013-06-14 16:00:00,66.6,26.0,30.04,NW,304,2.0,5.0,22,0.00,,,0.00,weatherlink.com 1.10,2013-06-14 23:00:00,
2013-06-14 16:15:00,66.4,25.0,30.03,SSW,210,4.0,9.0,21,0.00,,,0.00,weatherlink.com 1.10,2013-06-14 23:15:00,
2013-06-14 16:30:00,68.0,25.0,30.02,SE,142,6.0,10.0,20,0.00,,,0.00,weatherlink.com 1.10,2013-06-14 23:30:00,
2013-06-14 16:45:00,68.3,20.0,30.02,SW,217,1.0,9.0,16,0.00,,,0.00,weatherlink.com 1.10,2013-06-14 23:45:00,
2013-06-14 17:00:00,67.7,26.0,30.01,SW,236,2.0,8.0,21,0.00,,,0.00,weatherlink.com 1.10,2013-06-15 00:00:00,
2013-06-14 17:15:00,69.7,21.0,30.00,SSE,149,1.0,8.0,16,0.00,,,0.00,weatherlink.com 1.10,2013-06-15 00:15:00,
2013-06-14 17:30:00,68.2,22.0,30.00,ESE,121,4.0,7.0,17,0.00,,,0.00,weatherlink.com 1.10,2013-06-15 00:30:00,
2013-06-14 17:45:00,68.7,17.0,29.99,West,280,3.0,8.0,14,0.00,,,0.00,weatherlink.com 1.10,2013-06-15 00:45:00,
2013-06-14 18:00:00,68.9,21.0,29.98,South,181,2.0,6.0,16,0.00,,,0.00,weatherlink.com 1.10,2013-06-15 01:00:00,
2013-06-14 18:15:00,70.1,25.0,29.98,West,266,3.0,4.0,18,0.00,,,0.00,weatherlink.com 1.10,2013-06-15 01:15:00,
2013-06-14 18:30:00,69.4,24.0,29.97,WNW,287,3.0,6.0,18,0.00,,,0.00,weatherlink.com 1.10,2013-06-15 01:30:00,
2013-06-14 18:45:00,68.8,27.0,29.97,WNW,301,4.0,6.0,21,0.00,,,0.00,weatherlink.com 1.10,2013-06-15 01:45:00,
2013-06-14 19:00:00,68.1,31.0,29.96,WNW,300,2.0,6.0,25,0.00,,,0.00,weatherlink.com 1.10,2013-06-15 02:00:00,
2013-06-14 19:15:00,67.4,31.0,29.96,NW,316,3.0,9.0,26,0.00,,,0.00,weatherlink.com 1.10,2013-06-15 02:15:00,
2013-06-14 19:31:00,67.1,32.0,29.95,WNW,302,4.0,7.0,27,0.00,,,0.00,weatherlink.com 1.10,2013-06-15 02:31:00,
2013-06-14 19:46:00,67.4,32.0,29.95,NNW,332,4.0,5.0,27,0.00,,,0.00,weatherlink.com 1.10,2013-06-15 02:46:00,
2013-06-14 20:01:00,66.4,31.0,29.95,WNW,288,3.0,7.0,27,0.00,,,0.00,weatherlink.com 1.10,2013-06-15 03:01:00,
2013-06-14 20:16:00,65.3,31.0,29.94,North,349,1.0,7.0,28,0.00,,,0.00,weatherlink.com 1.10,2013-06-15 03:16:00,
2013-06-14 20:31:00,64.2,31.0,29.94,NNW,336,0.0,5.0,29,0.00,,,0.00,weatherlink.com 1.10,2013-06-15 03:31:00,
2013-06-14 20:46:00,62.5,32.0,29.94,North,7,0.0,5.0,32,0.00,,,0.00,weatherlink.com 1.10,2013-06-15 03:46:00,
2013-06-14 21:01:00,60.1,33.0,29.94,NE,54,0.0,1.0,36,0.00,,,0.00,weatherlink.com 1.10,2013-06-15 04:01:00,
2013-06-14 21:16:00,58.7,33.0,29.94,ENE,64,0.0,2.0,38,0.00,,,0.00,weatherlink.com 1.10,2013-06-15 04:16:00,
2013-06-14 21:31:00,57.5,33.0,29.94,NNE,20,0.0,3.0,40,0.00,,,0.00,weatherlink.com 1.10,2013-06-15 04:31:00,
2013-06-14 21:46:00,57.0,33.0,29.93,NE,47,1.0,2.0,40,0.00,,,0.00,weatherlink.com 1.10,2013-06-15 04:46:00,
2013-06-14 22:01:00,56.7,32.0,29.93,West,259,0.0,1.0,40,0.00,,,0.00,weatherlink.com 1.10,2013-06-15 05:01:00,
2013-06-14 22:16:00,55.8,32.0,29.93,NNW,327,0.0,1.0,41,0.00,,,0.00,weatherlink.com 1.10,2013-06-15 05:16:00,
2013-06-14 22:31:00,54.8,32.0,29.93,SSE,166,1.0,2.0,43,0.00,,,0.00,weatherlink.com 1.10,2013-06-15 05:31:00,
2013-06-14 22:46:00,55.3,32.0,29.92,SSW,203,1.0,2.0,41,0.00,,,0.00,weatherlink.com 1.10,2013-06-15 05:46:00,
2013-06-14 23:01:00,53.7,33.0,29.92,South,169,1.0,4.0,45,0.00,,,0.00,weatherlink.com 1.10,2013-06-15 06:01:00,
2013-06-14 23:16:00,53.4,32.0,29.92,SE,134,1.0,2.0,45,0.00,,,0.00,weatherlink.com 1.10,2013-06-15 06:16:00,
2013-06-14 23:31:00,53.2,32.0,29.92,SE,125,0.0,1.0,45,0.00,,,0.00,weatherlink.com 1.10,2013-06-15 06:31:00,
2013-06-14 23:46:00,53.7,31.0,29.92,SE,124,0.0,0.0,43,0.00,,,0.00,weatherlink.com 1.10,2013-06-15 06:46:00,